createdAt,value
2017-05-28T00:01:44.339Z,48.40
2017-05-28T00:04:13.146Z,48.10
2017-05-28T00:06:41.987Z,48.90
2017-05-28T00:09:10.796Z,49.50
2017-05-28T00:11:39.607Z,48.90
2017-05-28T00:14:08.451Z,48.50
2017-05-28T00:16:36.904Z,48.00
2017-05-28T00:19:05.704Z,48.90
2017-05-28T00:21:34.616Z,48.10
2017-05-28T00:24:03.060Z,47.70
2017-05-28T00:26:31.870Z,48.50
2017-05-28T00:29:00.701Z,48.10
2017-05-28T00:31:29.536Z,48.50
2017-05-28T00:33:58.352Z,48.60
2017-05-28T00:36:27.163Z,48.30
2017-05-28T00:38:56.031Z,48.40
2017-05-28T00:41:24.482Z,48.00
2017-05-28T00:43:53.275Z,48.50
2017-05-28T00:46:22.127Z,48.40
2017-05-28T00:48:50.939Z,48.50
2017-05-28T00:51:19.747Z,48.00
2017-05-28T00:53:48.602Z,48.80
2017-05-28T00:56:17.412Z,48.80
2017-05-28T00:58:46.239Z,48.90
2017-05-28T01:01:15.074Z,49.40
2017-05-28T01:03:43.891Z,49.40
2017-05-28T01:06:12.329Z,49.10
2017-05-28T01:08:41.165Z,49.90
2017-05-28T01:11:09.966Z,50.00
2017-05-28T01:13:38.783Z,50.00
2017-05-28T01:16:07.627Z,50.10
2017-05-28T01:18:36.434Z,50.10
2017-05-28T01:21:05.259Z,50.60
2017-05-28T01:23:34.126Z,51.00
2017-05-28T01:26:02.952Z,51.30
2017-05-28T01:28:31.775Z,51.30
2017-05-28T01:31:00.603Z,51.60
2017-05-28T01:33:29.426Z,50.90
2017-05-28T01:35:58.240Z,51.60
2017-05-28T01:38:27.139Z,51.60
2017-05-28T01:40:55.951Z,51.60
2017-05-28T01:43:24.806Z,52.00
2017-05-28T01:45:53.658Z,52.60
2017-05-28T01:48:22.464Z,52.60
2017-05-28T01:50:51.279Z,52.40
2017-05-28T01:53:20.125Z,52.80
2017-05-28T01:55:48.943Z,53.20
2017-05-28T01:58:17.781Z,52.90
2017-05-28T02:00:46.623Z,52.60
2017-05-28T02:03:15.441Z,53.30
2017-05-28T02:05:44.285Z,53.00
2017-05-28T02:08:13.139Z,53.80
2017-05-28T02:10:41.974Z,54.30
2017-05-28T02:13:10.804Z,54.00
2017-05-28T02:15:38.880Z,54.00
2017-05-28T02:18:07.683Z,54.20
2017-05-28T02:20:36.536Z,54.20
2017-05-28T02:23:05.354Z,53.70
2017-05-28T02:25:34.166Z,54.00
2017-05-28T02:28:03.016Z,54.20
2017-05-28T02:30:31.855Z,54.70
2017-05-28T02:33:00.671Z,54.60
2017-05-28T02:35:29.508Z,54.50
2017-05-28T02:37:58.363Z,55.60
2017-05-28T02:40:27.188Z,55.70
2017-05-28T02:42:56.010Z,55.30
2017-05-28T02:45:24.870Z,55.40
2017-05-28T02:47:53.701Z,55.40
2017-05-28T02:50:22.512Z,55.50
2017-05-28T02:52:51.360Z,55.90
2017-05-28T02:55:20.987Z,56.80
2017-05-28T02:57:49.819Z,56.30
2017-05-28T03:00:18.653Z,56.10
2017-05-28T03:02:47.464Z,57.30
2017-05-28T03:05:16.328Z,56.40
2017-05-28T03:07:45.155Z,56.20
2017-05-28T03:10:13.979Z,56.90
2017-05-28T03:12:42.052Z,56.80
2017-05-28T03:15:10.879Z,56.40
2017-05-28T03:17:39.697Z,56.40
2017-05-28T03:20:08.536Z,56.80
2017-05-28T03:22:36.611Z,56.80
2017-05-28T03:25:05.432Z,57.50
2017-05-28T03:27:34.296Z,56.50
2017-05-28T03:30:03.097Z,57.50
2017-05-28T03:32:31.933Z,56.90
2017-05-28T03:35:00.779Z,56.70
2017-05-28T03:37:29.620Z,56.40
2017-05-28T03:39:58.901Z,55.90
2017-05-28T03:42:27.746Z,55.50
2017-05-28T03:44:56.660Z,55.80
2017-05-28T03:47:25.470Z,56.00
2017-05-28T03:49:53.539Z,55.30
2017-05-28T03:52:22.375Z,56.00
2017-05-28T03:54:51.232Z,56.10
2017-05-28T03:57:20.043Z,55.50
2017-05-28T03:59:48.935Z,56.00
2017-05-28T04:02:17.797Z,55.80
2017-05-28T04:04:46.626Z,55.80
2017-05-28T04:07:15.453Z,55.70
2017-05-28T04:09:43.538Z,55.60
2017-05-28T04:12:12.355Z,56.00
2017-05-28T04:14:40.395Z,56.00
2017-05-28T04:17:09.233Z,55.90
2017-05-28T04:19:38.064Z,55.90
2017-05-28T04:22:06.879Z,55.20
2017-05-28T04:24:35.724Z,55.80
2017-05-28T04:27:04.535Z,55.50
2017-05-28T04:29:33.381Z,55.50
2017-05-28T04:32:02.239Z,55.70
2017-05-28T04:34:31.063Z,55.80
2017-05-28T04:36:59.882Z,55.70
2017-05-28T04:39:28.719Z,56.70
2017-05-28T04:41:57.560Z,55.90
2017-05-28T04:44:26.399Z,56.10
2017-05-28T04:46:55.211Z,56.10
2017-05-28T04:49:24.056Z,55.70
2017-05-28T04:51:52.875Z,55.40
2017-05-28T04:54:21.703Z,55.60
2017-05-28T04:56:50.572Z,56.10
2017-05-28T04:59:19.398Z,56.30
2017-05-28T05:01:48.211Z,55.30
2017-05-28T05:04:17.057Z,55.70
2017-05-28T05:06:45.872Z,55.30
2017-05-28T05:09:14.708Z,56.50
2017-05-28T05:11:43.522Z,54.60
2017-05-28T05:14:12.372Z,55.60
2017-05-28T05:16:41.185Z,55.50
2017-05-28T05:19:10.013Z,54.60
2017-05-28T05:21:38.868Z,54.50
2017-05-28T05:24:07.737Z,55.60
2017-05-28T05:26:36.496Z,55.00
2017-05-28T05:29:05.337Z,54.50
2017-05-28T05:31:34.179Z,54.60
2017-05-28T05:34:03.037Z,54.50
2017-05-28T05:36:31.882Z,54.10
2017-05-28T05:39:00.708Z,54.00
2017-05-28T05:41:29.556Z,53.50
2017-05-28T05:43:58.367Z,53.60
2017-05-28T05:46:27.207Z,53.40
2017-05-28T05:48:56.042Z,53.60
2017-05-28T05:51:24.886Z,52.00
2017-05-28T05:53:53.804Z,52.10
2017-05-28T05:56:22.594Z,52.30
2017-05-28T05:58:51.432Z,51.30
2017-05-28T06:01:20.258Z,51.80
2017-05-28T06:03:49.071Z,50.40
2017-05-28T06:06:17.907Z,49.50
2017-05-28T06:08:45.977Z,50.00
2017-05-28T06:11:14.829Z,50.40
2017-05-28T06:13:43.645Z,50.10
2017-05-28T06:16:12.514Z,50.00
2017-05-28T06:18:41.327Z,50.00
2017-05-28T06:21:10.157Z,50.00
2017-05-28T06:23:39.127Z,47.70
2017-05-28T06:26:07.949Z,48.70
2017-05-28T06:28:36.799Z,48.20
2017-05-28T06:31:06.574Z,49.40
2017-05-28T06:33:35.450Z,48.90
2017-05-28T06:36:04.247Z,49.30
2017-05-28T06:38:33.103Z,49.30
2017-05-28T06:41:01.950Z,48.80
2017-05-28T06:43:30.777Z,48.00
2017-05-28T06:45:59.593Z,48.40
2017-05-28T06:48:28.420Z,47.70
2017-05-28T06:50:57.265Z,48.10
2017-05-28T06:53:26.110Z,46.70
2017-05-28T06:55:54.907Z,47.30
2017-05-28T06:58:23.775Z,46.80
2017-05-28T07:00:52.631Z,46.40
2017-05-28T07:03:21.454Z,43.90
2017-05-28T07:05:50.304Z,46.10
2017-05-28T07:08:19.110Z,43.60
2017-05-28T07:10:47.936Z,45.30
2017-05-28T07:13:16.795Z,43.70
2017-05-28T07:18:48.802Z,43.50
2017-05-28T07:21:17.062Z,44.20
2017-05-28T07:23:45.290Z,43.80
2017-05-28T07:26:13.566Z,43.80
2017-05-28T07:28:42.299Z,45.70
2017-05-28T07:31:11.151Z,44.00
2017-05-28T07:33:39.967Z,42.70
2017-05-28T07:36:08.779Z,43.60
2017-05-28T07:38:37.641Z,43.10
2017-05-28T07:41:06.477Z,42.80
2017-05-28T07:43:35.289Z,41.30
2017-05-28T07:46:04.116Z,42.30
2017-05-28T07:48:32.955Z,42.00
2017-05-28T07:51:01.776Z,42.60
2017-05-28T07:53:30.602Z,42.60
2017-05-28T07:55:59.443Z,44.20
2017-05-28T07:58:28.277Z,43.90
2017-05-28T08:00:57.098Z,41.90
2017-05-28T08:03:25.952Z,40.70
2017-05-28T08:05:54.764Z,39.20
2017-05-28T08:08:23.618Z,41.20
2017-05-28T08:10:52.437Z,41.10
2017-05-28T08:13:21.292Z,40.00
2017-05-28T08:15:50.122Z,39.10
2017-05-28T08:18:18.935Z,40.30
2017-05-28T08:20:47.772Z,40.30
2017-05-28T08:23:16.620Z,40.20
2017-05-28T08:25:45.462Z,39.90
2017-05-28T08:28:14.279Z,37.80
2017-05-28T08:30:43.126Z,37.10
2017-05-28T08:33:11.979Z,36.30
2017-05-28T08:35:40.783Z,35.60
2017-05-28T08:38:09.654Z,35.30
2017-05-28T08:40:38.466Z,34.40
2017-05-28T08:43:07.282Z,34.60
2017-05-28T08:45:36.236Z,32.40
2017-05-28T08:48:05.068Z,33.40
2017-05-28T08:50:33.915Z,30.30
2017-05-28T08:53:02.787Z,30.00
2017-05-28T08:55:31.599Z,29.80
2017-05-28T08:58:00.460Z,31.40
2017-05-28T09:00:29.290Z,33.80
2017-05-28T09:02:58.103Z,32.50
2017-05-28T09:05:26.956Z,31.00
2017-05-28T09:07:55.780Z,30.60
2017-05-28T09:10:24.599Z,30.20
2017-05-28T09:12:53.456Z,31.50
2017-05-28T09:15:22.297Z,32.00
2017-05-28T09:17:51.106Z,33.80
2017-05-28T09:20:19.938Z,30.20
2017-05-28T09:22:48.750Z,30.10
2017-05-28T09:25:17.604Z,29.60
2017-05-28T09:27:46.427Z,30.00
2017-05-28T09:30:15.243Z,29.40
2017-05-28T09:32:44.107Z,30.00
2017-05-28T09:35:12.932Z,29.90
2017-05-28T09:37:41.743Z,31.00
2017-05-28T09:40:10.619Z,30.60
2017-05-28T09:42:39.435Z,29.70
2017-05-28T09:45:08.256Z,28.50
2017-05-28T09:47:37.111Z,27.80
2017-05-28T09:50:05.984Z,27.40
2017-05-28T09:52:34.792Z,28.80
2017-05-28T09:55:03.706Z,27.50
2017-05-28T09:57:32.519Z,28.70
2017-05-28T10:00:01.339Z,26.70
2017-05-28T10:02:30.173Z,27.20
2017-05-28T10:04:59.071Z,27.90
2017-05-28T10:07:27.876Z,26.90
2017-05-28T10:09:56.705Z,27.80
2017-05-28T10:12:25.567Z,26.20
2017-05-28T10:14:54.485Z,25.50
2017-05-28T10:17:23.282Z,25.10
2017-05-28T10:19:52.120Z,26.60
2017-05-28T10:22:20.973Z,26.00
2017-05-28T10:24:49.833Z,26.20
2017-05-28T10:27:18.720Z,25.10
2017-05-28T10:29:47.556Z,25.80
2017-05-28T10:32:16.412Z,24.20
2017-05-28T10:34:45.241Z,24.80
2017-05-28T10:37:14.051Z,25.00
2017-05-28T10:39:42.933Z,24.90
2017-05-28T10:42:11.763Z,24.70
2017-05-28T10:44:40.624Z,24.70
2017-05-28T10:47:09.492Z,23.10
2017-05-28T10:49:38.333Z,23.30
2017-05-28T10:52:07.149Z,25.90
2017-05-28T10:54:36.013Z,22.70
2017-05-28T10:57:04.841Z,22.20
2017-05-28T10:59:33.664Z,22.90
2017-05-28T11:02:02.522Z,23.50
2017-05-28T11:04:31.343Z,21.80
2017-05-28T11:07:00.219Z,21.40
2017-05-28T11:09:28.285Z,21.40
2017-05-28T11:11:57.127Z,21.10
2017-05-28T11:14:25.968Z,21.50
2017-05-28T11:16:54.783Z,21.40
2017-05-28T11:19:23.609Z,21.70
2017-05-28T11:21:53.025Z,21.50
2017-05-28T11:24:21.856Z,21.90
2017-05-28T11:26:50.674Z,22.50
2017-05-28T11:29:19.599Z,22.20
2017-05-28T11:31:48.435Z,21.30
2017-05-28T11:34:17.246Z,20.60
2017-05-28T11:36:46.139Z,21.20
2017-05-28T11:39:14.923Z,20.20
2017-05-28T11:41:43.757Z,20.20
2017-05-28T11:44:12.595Z,19.20
2017-05-28T11:46:41.407Z,19.30
2017-05-28T11:49:10.259Z,19.70
2017-05-28T11:51:39.093Z,18.30
2017-05-28T11:54:07.904Z,18.00
2017-05-28T11:56:36.764Z,17.40
2017-05-28T11:59:05.535Z,17.60
2017-05-28T12:01:34.381Z,16.70
2017-05-28T12:04:03.206Z,18.50
2017-05-28T12:06:32.067Z,18.00
2017-05-28T12:09:00.925Z,17.80
2017-05-28T12:11:29.735Z,17.90
2017-05-28T12:13:58.990Z,18.30
2017-05-28T12:16:27.788Z,17.20
2017-05-28T12:18:56.619Z,17.30
2017-05-28T12:21:25.456Z,16.70
2017-05-28T12:23:54.323Z,18.20
2017-05-28T12:26:23.135Z,19.00
2017-05-28T12:28:51.946Z,18.80
2017-05-28T12:31:20.816Z,20.60
2017-05-28T12:33:49.658Z,19.40
2017-05-28T12:36:18.487Z,19.20
2017-05-28T12:38:47.316Z,18.40
2017-05-28T12:41:16.143Z,18.70
2017-05-28T12:43:45.065Z,19.10
2017-05-28T12:46:13.882Z,18.40
2017-05-28T12:48:42.707Z,19.20
2017-05-28T12:51:11.547Z,18.70
2017-05-28T12:53:40.411Z,18.00
2017-05-28T12:56:09.183Z,17.40
2017-05-28T12:58:38.032Z,17.60
2017-05-28T13:01:06.871Z,17.20
2017-05-28T13:03:35.683Z,16.40
2017-05-28T13:06:04.499Z,15.80
2017-05-28T13:08:33.371Z,15.70
2017-05-28T13:11:02.199Z,16.20
2017-05-28T13:13:31.020Z,15.50
2017-05-28T13:15:59.849Z,16.30
2017-05-28T13:18:28.682Z,16.80
2017-05-28T13:20:57.511Z,17.40
2017-05-28T13:23:26.388Z,17.20
2017-05-28T13:25:55.240Z,17.50
2017-05-28T13:28:24.047Z,17.10
2017-05-28T13:30:52.929Z,16.70
2017-05-28T13:33:21.761Z,17.20
2017-05-28T13:35:50.585Z,16.30
2017-05-28T13:38:19.407Z,15.60
2017-05-28T13:40:48.215Z,16.30
2017-05-28T13:43:17.064Z,17.40
2017-05-28T13:45:45.896Z,15.70
2017-05-28T13:48:14.715Z,16.40
2017-05-28T13:50:43.598Z,15.60
2017-05-28T13:53:12.451Z,16.70
2017-05-28T13:55:41.270Z,15.90
2017-05-28T13:58:10.102Z,15.90
2017-05-28T14:00:38.911Z,16.60
2017-05-28T14:03:07.746Z,16.80
2017-05-28T14:05:36.608Z,17.30
2017-05-28T14:08:05.424Z,16.60
2017-05-28T14:10:34.236Z,17.10
2017-05-28T14:13:03.083Z,16.70
2017-05-28T14:15:31.924Z,16.10
2017-05-28T14:18:00.757Z,17.40
2017-05-28T14:20:29.603Z,15.40
2017-05-28T14:22:58.427Z,15.50
2017-05-28T14:25:27.244Z,16.10
2017-05-28T14:27:56.107Z,16.80
2017-05-28T14:30:24.906Z,15.60
2017-05-28T14:32:53.723Z,15.80
2017-05-28T14:35:22.570Z,15.80
2017-05-28T14:37:51.444Z,16.00
2017-05-28T14:40:20.303Z,16.20
2017-05-28T14:42:49.211Z,15.90
2017-05-28T14:45:18.083Z,16.00
2017-05-28T14:47:46.964Z,16.60
2017-05-28T14:50:15.754Z,16.80
2017-05-28T14:52:44.624Z,17.00
2017-05-28T14:55:13.417Z,17.30
2017-05-28T14:57:42.223Z,16.00
2017-05-28T15:00:11.059Z,17.40
2017-05-28T15:02:39.875Z,17.20
2017-05-28T15:05:08.728Z,16.50
2017-05-28T15:07:37.539Z,17.40
2017-05-28T15:10:06.361Z,16.70
2017-05-28T15:12:35.202Z,17.00
2017-05-28T15:15:04.024Z,16.60
2017-05-28T15:17:32.871Z,16.80
2017-05-28T15:20:01.720Z,16.50
2017-05-28T15:22:30.531Z,17.00
2017-05-28T15:24:59.409Z,17.20
2017-05-28T15:27:28.219Z,17.10
2017-05-28T15:29:57.074Z,17.70
2017-05-28T15:32:25.916Z,17.60
2017-05-28T15:34:54.786Z,18.90
2017-05-28T15:37:23.604Z,18.10
2017-05-28T15:39:52.431Z,18.20
2017-05-28T15:42:21.263Z,17.60
2017-05-28T15:44:50.105Z,17.70
2017-05-28T15:47:18.936Z,17.50
2017-05-28T15:49:47.747Z,19.10
2017-05-28T15:52:16.592Z,18.50
2017-05-28T15:54:45.413Z,19.20
2017-05-28T15:57:14.251Z,20.30
2017-05-28T15:59:43.094Z,19.40
2017-05-28T16:02:11.950Z,19.70
2017-05-28T16:04:40.811Z,20.40
2017-05-28T16:07:09.741Z,22.30
2017-05-28T16:09:38.706Z,22.20
2017-05-28T16:12:07.568Z,22.00
2017-05-28T16:14:36.342Z,22.50
2017-05-28T16:17:05.186Z,23.80
2017-05-28T16:19:34.018Z,24.50
2017-05-28T16:22:02.842Z,24.80
2017-05-28T16:24:31.671Z,25.70
2017-05-28T16:27:00.516Z,27.20
2017-05-28T16:29:29.354Z,27.90
2017-05-28T16:31:58.211Z,28.50
2017-05-28T16:34:27.017Z,28.50
2017-05-28T16:36:55.859Z,29.40
2017-05-28T16:39:24.682Z,28.20
2017-05-28T16:41:53.491Z,28.40
2017-05-28T16:44:22.331Z,28.50
2017-05-28T16:46:51.148Z,29.50
2017-05-28T16:49:19.963Z,28.90
2017-05-28T16:51:48.805Z,29.60
2017-05-28T16:54:17.644Z,28.90
2017-05-28T16:56:46.458Z,29.60
2017-05-28T16:59:15.288Z,30.00
2017-05-28T17:01:44.119Z,30.70
2017-05-28T17:04:12.950Z,31.20
2017-05-28T17:06:41.803Z,33.50
2017-05-28T17:09:10.623Z,34.40
2017-05-28T17:11:39.453Z,35.90
2017-05-28T17:14:08.321Z,34.30
2017-05-28T17:16:37.125Z,34.00
2017-05-28T17:19:05.940Z,34.50
2017-05-28T17:21:34.794Z,35.30
2017-05-28T17:24:03.620Z,36.10
2017-05-28T17:26:32.462Z,36.50
2017-05-28T17:29:01.295Z,37.20
2017-05-28T17:31:30.107Z,36.20
2017-05-28T17:33:58.948Z,35.90
2017-05-28T17:36:27.761Z,36.00
2017-05-28T17:38:56.658Z,37.00
2017-05-28T17:41:25.474Z,38.20
2017-05-28T17:43:54.332Z,38.50
2017-05-28T17:46:23.153Z,38.60
2017-05-28T17:48:51.975Z,39.30
2017-05-28T17:51:20.817Z,39.90
2017-05-28T17:53:49.637Z,39.80
2017-05-28T17:56:18.457Z,40.10
2017-05-28T17:58:47.387Z,40.70
2017-05-28T18:01:16.197Z,41.20
2017-05-28T18:03:45.090Z,41.70
2017-05-28T18:06:13.982Z,43.10
2017-05-28T18:08:42.867Z,42.10
2017-05-28T18:11:11.655Z,40.50
2017-05-28T18:13:40.550Z,40.20
2017-05-28T18:16:09.382Z,40.00
2017-05-28T18:18:38.201Z,41.50
2017-05-28T18:21:07.129Z,42.90
2017-05-28T18:23:35.931Z,44.10
2017-05-28T18:26:05.720Z,45.10
2017-05-28T18:28:34.544Z,48.30
2017-05-28T18:31:03.364Z,48.90
2017-05-28T18:33:32.256Z,50.00
2017-05-28T18:36:01.067Z,49.10
2017-05-28T18:38:29.879Z,48.60
2017-05-28T18:40:58.731Z,51.20
2017-05-28T18:43:27.741Z,50.80
2017-05-28T18:45:56.575Z,51.10
2017-05-28T18:48:25.418Z,52.90
2017-05-28T18:50:54.389Z,54.40
2017-05-28T18:53:23.184Z,55.40
2017-05-28T18:55:52.023Z,55.50
2017-05-28T18:58:20.844Z,56.60
2017-05-28T19:00:49.666Z,56.00
2017-05-28T19:03:18.543Z,56.60
2017-05-28T19:05:47.374Z,57.60
2017-05-28T19:08:16.194Z,56.40
2017-05-28T19:10:45.056Z,55.50
2017-05-28T19:13:13.872Z,55.70
2017-05-28T19:15:42.746Z,56.80
2017-05-28T19:18:11.583Z,55.80
2017-05-28T19:20:40.399Z,56.30
2017-05-28T19:23:08.484Z,56.30
2017-05-28T19:25:37.311Z,58.90
2017-05-28T19:28:06.132Z,55.10
2017-05-28T19:30:34.963Z,56.10
2017-05-28T19:33:03.324Z,56.30
2017-05-28T19:35:32.097Z,56.50
2017-05-28T19:38:00.903Z,58.00
2017-05-28T19:40:29.739Z,60.30
2017-05-28T19:42:58.555Z,61.80
2017-05-28T19:45:27.367Z,62.60
2017-05-28T19:47:56.212Z,64.20
2017-05-28T19:50:25.027Z,63.20
2017-05-28T19:52:53.893Z,64.70
2017-05-28T19:55:22.753Z,65.50
2017-05-28T19:57:51.556Z,67.10
2017-05-28T20:00:20.409Z,65.30
2017-05-28T20:02:49.249Z,62.50
2017-05-28T20:05:18.044Z,61.70
2017-05-28T20:07:46.915Z,65.10
2017-05-28T20:10:15.715Z,63.40
2017-05-28T20:12:44.527Z,63.90
2017-05-28T20:15:13.365Z,63.60
2017-05-28T20:17:41.707Z,65.20
2017-05-28T20:20:10.439Z,63.50
2017-05-28T20:22:39.333Z,62.70
2017-05-28T20:25:08.131Z,64.60
2017-05-28T20:27:36.944Z,67.30
2017-05-28T20:30:05.784Z,64.70
2017-05-28T20:35:12.234Z,65.10
2017-05-28T20:37:40.495Z,63.00
2017-05-28T20:40:08.815Z,64.40
2017-05-28T20:42:37.282Z,63.40
2017-05-28T20:45:05.526Z,63.00
2017-05-28T20:47:33.869Z,64.50
2017-05-28T20:50:02.242Z,65.80
2017-05-28T20:52:30.819Z,65.50
2017-05-28T20:54:59.094Z,67.90
2017-05-28T20:57:27.361Z,68.80
2017-05-28T20:59:55.616Z,69.00
2017-05-28T21:02:23.852Z,68.30
2017-05-28T21:04:52.146Z,70.40
2017-05-28T21:07:20.482Z,72.80
2017-05-28T21:09:48.771Z,74.10
2017-05-28T21:12:17.085Z,72.80
2017-05-28T21:14:45.340Z,73.00
2017-05-28T21:17:14.004Z,71.20
2017-05-28T21:19:42.263Z,71.60
2017-05-28T21:22:10.572Z,72.00
2017-05-28T21:24:38.947Z,70.20
2017-05-28T21:27:07.199Z,71.30
2017-05-28T21:29:35.562Z,73.10
2017-05-28T21:32:03.880Z,74.00
2017-05-28T21:34:32.114Z,73.80
2017-05-28T21:37:00.379Z,73.00
2017-05-28T21:39:28.648Z,75.80
2017-05-28T21:41:56.947Z,75.50
2017-05-28T21:44:25.314Z,74.30
2017-05-28T21:46:53.564Z,74.80
2017-05-28T21:49:21.880Z,74.10
2017-05-28T21:51:50.184Z,72.70
2017-05-28T21:56:47.668Z,74.70
2017-05-28T21:59:16.550Z,76.30
2017-05-28T22:01:45.405Z,76.20
2017-05-28T22:04:14.281Z,75.10
2017-05-28T22:06:42.667Z,76.80
2017-05-28T22:09:11.418Z,74.70
2017-05-28T22:11:40.240Z,73.70
2017-05-28T22:14:09.112Z,74.50
2017-05-28T22:16:38.003Z,76.30
2017-05-28T22:19:06.895Z,77.10
2017-05-28T22:21:35.739Z,76.00
2017-05-28T22:24:04.559Z,75.30
2017-05-28T22:26:32.915Z,75.20
2017-05-28T22:29:01.641Z,76.60
2017-05-28T22:31:29.966Z,75.20
2017-05-28T22:33:58.803Z,76.60
2017-05-28T22:36:27.626Z,76.20
2017-05-28T22:38:56.445Z,75.00
2017-05-28T22:41:25.415Z,76.50
2017-05-28T22:43:54.771Z,76.70
2017-05-28T22:46:23.590Z,76.70
2017-05-28T22:48:52.463Z,77.30
2017-05-28T22:51:21.304Z,77.30
2017-05-28T22:53:50.144Z,77.30
2017-05-28T22:56:18.983Z,76.80
2017-05-28T22:58:47.962Z,76.30
2017-05-28T23:01:16.815Z,76.90
2017-05-28T23:03:45.707Z,77.70
2017-05-28T23:06:14.592Z,77.60
2017-05-28T23:08:43.489Z,78.00
2017-05-28T23:11:11.819Z,77.90
2017-05-28T23:13:40.652Z,77.50
2017-05-28T23:16:09.051Z,77.30
2017-05-28T23:18:37.308Z,78.80
2017-05-28T23:21:05.550Z,78.20
2017-05-28T23:23:33.813Z,76.00
2017-05-28T23:26:02.158Z,75.70
2017-05-28T23:28:30.434Z,76.30
2017-05-28T23:30:58.715Z,77.50
2017-05-28T23:33:27.455Z,77.90
2017-05-28T23:35:55.778Z,78.20
2017-05-28T23:38:24.519Z,78.80
2017-05-28T23:40:52.846Z,78.80
2017-05-28T23:43:21.087Z,79.40
2017-05-28T23:45:49.394Z,79.70
2017-05-28T23:48:18.388Z,78.10
2017-05-28T23:50:46.734Z,78.40
2017-05-28T23:53:15.017Z,79.50
2017-05-28T23:55:43.310Z,79.80
2017-05-28T23:58:11.600Z,79.70
